Aérodrome :
LOGIN :

S'inscrire | Disclaimer

   EN    FR    IT 

 










Légende :    VFR   VFR Marginal   IFR   IFR Intensif   IFR Très Intensif
Visi : 
Plafond : 
>= 8 km
>= 3000ft
5 à 8 km
1000 à 3000 ft
1500m à 5 km
500 à 1000 ft
800 à 1500m
200 à 500 ft
< 800m
< 200 ft
Symboles :   Orages  Brouillard  Fortes neiges  Fortes précipitations  Vent > 20 kt
SIGMETs :   Divers  Orages  Givrage  Turbulence  Onde Orograph.  Cendres Volcan.






- Altitude de l'aérodrome : 66 ft
- Code IATA : AOK


LGKP - Karpathos

DERNIER METAR :
  • 241150Z 28011KT 250V320 9999 FEW018 16/08 Q1017

METARs EXPIRÉS :
  • 241120Z 30009KT 9999 FEW018 17/08 Q1017
  • 241050Z 28012KT 9999 FEW018 16/08 Q1018
  • 241020Z 31011KT 9999 FEW018 SCT040 16/08 Q1018
  • 240950Z 31011KT 9999 FEW018 16/08 Q1018
  • 240920Z 30011KT 9999 FEW018 16/07 Q1018
  • 240850Z 31012KT 9999 FEW018 16/07 Q1019

TAF TAF LGKP
Valide du 24 à 12h jusqu'au 24 à 21h UTC


241100Z 2412/2421 32012KT 9999 SCT020



MET'MAP, la Météo Aéronautique d'un coup d'oeil ! - Copyright ORBIFLY Décembre 2007 - Disclaimer

ORBIFLY MET'MAP TEAM :

Programmation & Développement : Alexandra Zaïnal
Sur une idée originale de : Baudouin d'Aumeries
Assistance à la programmation : Marc-Olivier Méhu
Soutien technique & logistique : Manuel Goepfert

Contact : metmap@orbifly.com




SOURCES & CREDITS :

   NOAA